createdAt,value
2018-04-22T00:01:49.723Z,68.90
2018-04-22T00:04:17.747Z,69.10
2018-04-22T00:06:45.743Z,69.50
2018-04-22T00:09:13.797Z,69.80
2018-04-22T00:11:41.811Z,70.30
2018-04-22T00:14:09.810Z,70.40
2018-04-22T00:16:38.595Z,72.10
2018-04-22T00:19:06.594Z,72.10
2018-04-22T00:21:35.377Z,72.10
2018-04-22T00:24:03.392Z,72.00
2018-04-22T00:26:31.396Z,72.50
2018-04-22T00:28:59.436Z,73.10
2018-04-22T00:31:27.431Z,74.00
2018-04-22T00:33:56.216Z,73.40
2018-04-22T00:36:24.221Z,73.20
2018-04-22T00:38:52.255Z,73.80
2018-04-22T00:41:20.264Z,74.20
2018-04-22T00:43:48.267Z,76.80
2018-04-22T00:46:16.291Z,75.40
2018-04-22T00:48:44.310Z,75.60
2018-04-22T00:51:12.323Z,75.70
2018-04-22T00:53:52.366Z,76.00
2018-04-22T00:56:20.460Z,76.20
2018-04-22T00:58:49.267Z,77.00
2018-04-22T01:01:17.329Z,77.10
2018-04-22T01:03:45.401Z,77.10
2018-04-22T01:06:13.434Z,77.00
2018-04-22T01:08:41.499Z,79.00
2018-04-22T01:11:09.543Z,79.30
2018-04-22T01:13:37.619Z,80.40
2018-04-22T01:16:05.663Z,80.70
2018-04-22T01:18:34.187Z,80.30
2018-04-22T01:21:02.256Z,80.70
2018-04-22T01:23:31.051Z,80.00
2018-04-22T01:25:59.926Z,80.60
2018-04-22T01:28:27.950Z,79.90
2018-04-22T01:30:56.015Z,79.90
2018-04-22T01:33:24.827Z,81.00
2018-04-22T01:35:53.660Z,81.80
2018-04-22T01:38:21.701Z,81.70
2018-04-22T01:40:50.519Z,84.30
2018-04-22T01:43:18.564Z,83.80
2018-04-22T01:45:47.408Z,84.50
2018-04-22T01:48:16.235Z,85.10
2018-04-22T01:50:44.280Z,85.00
2018-04-22T01:53:13.110Z,85.70
2018-04-22T01:55:41.167Z,85.50
2018-04-22T01:58:11.512Z,86.60
2018-04-22T02:00:42.246Z,85.90
2018-04-22T02:03:11.079Z,86.10
2018-04-22T02:05:39.155Z,86.00
2018-04-22T02:08:07.193Z,85.80
2018-04-22T02:10:35.539Z,85.10
2018-04-22T02:13:03.599Z,85.10
2018-04-22T02:15:32.404Z,86.10
2018-04-22T02:18:01.244Z,86.80
2018-04-22T02:20:29.312Z,86.70
2018-04-22T02:22:57.359Z,86.50
2018-04-22T02:25:25.423Z,86.60
2018-04-22T02:27:54.986Z,87.00
2018-04-22T02:30:23.819Z,86.70
2018-04-22T02:32:51.932Z,86.60
2018-04-22T02:35:20.754Z,86.60
2018-04-22T02:37:49.738Z,87.00
2018-04-22T02:40:18.692Z,87.60
2018-04-22T02:42:46.763Z,87.50
2018-04-22T02:45:14.819Z,88.20
2018-04-22T02:47:42.879Z,89.60
2018-04-22T02:50:10.953Z,89.60
2018-04-22T02:52:39.023Z,90.10
2018-04-22T02:55:07.067Z,90.20
2018-04-22T02:57:35.896Z,89.60
2018-04-22T03:00:03.952Z,89.50
2018-04-22T03:02:32.779Z,90.00
2018-04-22T03:05:00.836Z,89.30
2018-04-22T03:07:29.777Z,88.80
2018-04-22T03:09:57.840Z,88.70
2018-04-22T03:12:25.907Z,88.70
2018-04-22T03:14:54.731Z,89.20
2018-04-22T03:17:22.927Z,89.10
2018-04-22T03:19:50.990Z,88.70
2018-04-22T03:22:19.871Z,87.80
2018-04-22T03:24:47.883Z,87.70
2018-04-22T03:27:16.700Z,86.90
2018-04-22T03:29:44.756Z,87.50
2018-04-22T03:32:13.591Z,87.70
2018-04-22T03:34:41.626Z,87.70
2018-04-22T03:37:09.682Z,88.70
2018-04-22T03:39:37.729Z,88.70
2018-04-22T03:42:05.791Z,88.60
2018-04-22T03:44:33.844Z,89.30
2018-04-22T03:47:02.311Z,89.50
2018-04-22T03:49:30.379Z,89.60
2018-04-22T03:51:58.431Z,90.20
2018-04-22T03:54:27.255Z,90.70
2018-04-22T03:56:56.072Z,90.30
2018-04-22T03:59:24.749Z,90.20
2018-04-22T04:01:53.576Z,90.70
2018-04-22T04:04:21.636Z,90.70
2018-04-22T04:06:50.467Z,90.50
2018-04-22T04:09:18.512Z,90.50
2018-04-22T04:11:46.583Z,90.40
2018-04-22T04:14:14.624Z,90.80
2018-04-22T04:16:42.687Z,90.60
2018-04-22T04:19:23.008Z,91.00
2018-04-22T04:22:02.999Z,91.00
2018-04-22T04:24:43.893Z,90.90
2018-04-22T04:27:23.946Z,90.90
2018-04-22T04:29:51.990Z,90.90
2018-04-22T04:32:20.051Z,91.20
2018-04-22T04:34:48.103Z,90.90
2018-04-22T04:37:16.152Z,91.10
2018-04-22T04:39:44.197Z,91.10
2018-04-22T04:42:12.258Z,90.90
2018-04-22T04:44:41.091Z,90.90
2018-04-22T04:47:09.191Z,90.90
2018-04-22T04:49:37.414Z,90.60
2018-04-22T04:52:05.532Z,90.90
2018-04-22T04:54:34.361Z,91.00
2018-04-22T04:57:02.406Z,90.90
2018-04-22T04:59:30.464Z,90.70
2018-04-22T05:01:58.531Z,90.60
2018-04-22T05:04:26.719Z,90.70
2018-04-22T05:06:54.791Z,90.70
2018-04-22T05:09:22.835Z,91.00
2018-04-22T05:11:51.660Z,90.20
2018-04-22T05:14:20.111Z,90.20
2018-04-22T05:16:48.183Z,90.20
2018-04-22T05:19:17.763Z,88.90
2018-04-22T05:21:46.045Z,88.90
2018-04-22T05:24:14.110Z,88.30
2018-04-22T05:26:42.932Z,87.40
2018-04-22T05:29:10.999Z,87.20
2018-04-22T05:31:39.035Z,87.20
2018-04-22T05:34:07.134Z,87.60
2018-04-22T05:36:35.176Z,85.50
2018-04-22T05:39:03.708Z,84.70
2018-04-22T05:41:31.767Z,84.80
2018-04-22T05:43:59.812Z,84.70
2018-04-22T05:46:28.640Z,84.90
2018-04-22T05:48:56.687Z,84.90
2018-04-22T05:51:25.511Z,84.20
2018-04-22T05:53:53.713Z,84.10
2018-04-22T05:56:21.763Z,84.00
2018-04-22T05:58:50.604Z,83.10
2018-04-22T06:01:18.655Z,83.00
2018-04-22T06:03:47.480Z,81.50
2018-04-22T06:06:15.514Z,81.40
2018-04-22T06:08:45.088Z,74.10
2018-04-22T06:11:13.164Z,74.10
2018-04-22T06:13:41.199Z,74.20
2018-04-22T06:16:10.766Z,75.00
2018-04-22T06:18:38.825Z,75.10
2018-04-22T06:21:08.659Z,75.20
2018-04-22T06:23:37.463Z,75.40
2018-04-22T06:26:05.528Z,75.30
2018-04-22T06:28:33.611Z,75.40
2018-04-22T06:31:01.655Z,75.10
2018-04-22T06:33:29.716Z,75.30
2018-04-22T06:35:57.775Z,75.90
2018-04-22T06:38:26.599Z,75.80
2018-04-22T06:40:54.807Z,75.70
2018-04-22T06:43:22.867Z,74.70
2018-04-22T06:45:50.942Z,73.40
2018-04-22T06:48:19.755Z,72.10
2018-04-22T06:50:47.831Z,72.00
2018-04-22T06:53:15.914Z,71.90
2018-04-22T06:55:44.735Z,71.00
2018-04-22T06:58:12.776Z,71.00
2018-04-22T07:00:40.832Z,70.70
2018-04-22T07:03:09.363Z,69.90
2018-04-22T07:05:38.183Z,68.30
2018-04-22T07:08:07.017Z,68.60
2018-04-22T07:10:35.051Z,68.40
2018-04-22T07:13:03.884Z,67.90
2018-04-22T07:15:31.937Z,67.60
2018-04-22T07:18:00.767Z,65.40
2018-04-22T07:20:28.827Z,65.40
2018-04-22T07:22:57.642Z,65.30
2018-04-22T07:25:26.474Z,64.40
2018-04-22T07:27:54.520Z,64.20
2018-04-22T07:30:23.352Z,63.10
2018-04-22T07:32:51.391Z,63.10
2018-04-22T07:35:20.222Z,61.10
2018-04-22T07:37:48.339Z,61.00
2018-04-22T07:40:16.392Z,60.00
2018-04-22T07:42:44.462Z,59.60
2018-04-22T07:45:13.279Z,57.50
2018-04-22T07:47:41.346Z,57.40
2018-04-22T07:50:09.519Z,58.50
2018-04-22T07:52:38.359Z,56.10
2018-04-22T07:55:06.420Z,56.00
2018-04-22T07:57:35.259Z,55.80
2018-04-22T08:00:03.340Z,55.80
2018-04-22T08:02:31.383Z,55.20
2018-04-22T08:04:59.463Z,54.60
2018-04-22T08:07:28.267Z,52.40
2018-04-22T08:09:56.454Z,52.20
2018-04-22T08:12:24.490Z,52.50
2018-04-22T08:14:52.562Z,51.60
2018-04-22T08:17:20.631Z,50.70
2018-04-22T08:19:48.684Z,52.40
2018-04-22T08:22:17.521Z,49.20
2018-04-22T08:24:45.684Z,49.20
2018-04-22T08:27:14.507Z,48.80
2018-04-22T08:29:42.550Z,48.80
2018-04-22T08:32:10.627Z,47.90
2018-04-22T08:34:38.700Z,46.50
2018-04-22T08:37:06.768Z,46.50
2018-04-22T08:39:34.822Z,46.60
2018-04-22T08:42:02.883Z,46.70
2018-04-22T08:44:31.722Z,45.90
2018-04-22T08:46:59.763Z,45.80
2018-04-22T08:49:28.594Z,45.60
2018-04-22T08:51:56.638Z,46.10
2018-04-22T08:54:24.698Z,45.10
2018-04-22T08:56:52.770Z,45.80
2018-04-22T08:59:20.828Z,44.00
2018-04-22T09:01:49.665Z,43.00
2018-04-22T09:04:17.711Z,42.90
2018-04-22T09:06:45.793Z,43.70
2018-04-22T09:09:14.603Z,44.30
2018-04-22T09:11:42.668Z,44.30
2018-04-22T09:14:11.483Z,44.40
2018-04-22T09:16:40.307Z,44.90
2018-04-22T09:19:08.375Z,44.80
2018-04-22T09:21:36.511Z,43.10
2018-04-22T09:24:04.766Z,42.70
2018-04-22T09:26:32.820Z,41.10
2018-04-22T09:29:01.641Z,41.30
2018-04-22T09:31:29.704Z,41.30
2018-04-22T09:33:58.535Z,39.50
2018-04-22T09:36:26.566Z,39.50
2018-04-22T09:38:54.630Z,41.50
2018-04-22T09:41:22.681Z,39.20
2018-04-22T09:43:50.744Z,41.40
2018-04-22T09:46:19.573Z,39.60
2018-04-22T09:48:47.635Z,39.50
2018-04-22T09:51:16.471Z,39.00
2018-04-22T09:53:44.510Z,38.70
2018-04-22T09:56:13.340Z,36.50
2018-04-22T09:58:41.389Z,36.50
2018-04-22T10:01:09.443Z,36.90
2018-04-22T10:03:37.495Z,39.80
2018-04-22T10:06:05.559Z,36.30
2018-04-22T10:08:35.101Z,35.10
2018-04-22T10:11:03.151Z,35.00
2018-04-22T10:13:31.978Z,34.60
2018-04-22T10:16:00.032Z,34.60
2018-04-22T10:18:28.094Z,35.40
2018-04-22T10:20:57.642Z,35.80
2018-04-22T10:23:26.463Z,34.30
2018-04-22T10:25:54.502Z,34.20
2018-04-22T10:28:22.563Z,35.10
2018-04-22T10:30:50.631Z,34.70
2018-04-22T10:33:18.671Z,32.60
2018-04-22T10:35:47.495Z,31.30
2018-04-22T10:38:15.539Z,31.40
2018-04-22T10:40:43.600Z,32.00
2018-04-22T10:43:11.642Z,32.40
2018-04-22T10:45:40.434Z,30.50
2018-04-22T10:48:09.259Z,30.00
2018-04-22T10:50:37.293Z,29.90
2018-04-22T10:53:05.362Z,31.10
2018-04-22T10:55:33.399Z,30.60
2018-04-22T10:58:01.466Z,27.90
2018-04-22T11:00:30.267Z,28.00
2018-04-22T11:02:59.087Z,27.20
2018-04-22T11:05:27.884Z,28.70
2018-04-22T11:07:55.945Z,28.70
2018-04-22T11:10:23.998Z,27.70
2018-04-22T11:12:52.047Z,28.10
2018-04-22T11:15:20.107Z,25.70
2018-04-22T11:17:48.907Z,25.40
2018-04-22T11:20:16.955Z,25.30
2018-04-22T11:22:44.997Z,26.40
2018-04-22T11:25:13.059Z,27.70
2018-04-22T11:27:41.092Z,25.90
2018-04-22T11:30:09.146Z,24.80
2018-04-22T11:32:37.949Z,24.20
2018-04-22T11:35:06.014Z,24.20
2018-04-22T11:37:34.846Z,24.50
2018-04-22T11:40:02.879Z,24.60
2018-04-22T11:42:30.943Z,25.00
2018-04-22T11:44:58.971Z,24.90
2018-04-22T11:47:27.784Z,25.50
2018-04-22T11:49:56.587Z,25.00
2018-04-22T11:52:25.416Z,25.40
2018-04-22T11:54:53.519Z,25.30
2018-04-22T11:57:21.568Z,23.40
2018-04-22T11:59:49.640Z,23.50
2018-04-22T12:02:18.460Z,23.40
2018-04-22T12:04:46.524Z,23.50
2018-04-22T12:07:14.585Z,21.60
2018-04-22T12:09:42.630Z,23.80
2018-04-22T12:12:10.687Z,23.70
2018-04-22T12:14:38.755Z,23.60
2018-04-22T12:17:06.787Z,22.60
2018-04-22T12:19:34.823Z,23.70
2018-04-22T12:22:03.648Z,22.40
2018-04-22T12:24:31.690Z,22.40
2018-04-22T12:26:59.744Z,23.30
2018-04-22T12:29:27.808Z,23.00
2018-04-22T12:31:55.844Z,24.40
2018-04-22T12:34:23.898Z,24.20
2018-04-22T12:36:51.927Z,23.90
2018-04-22T12:39:20.752Z,24.20
2018-04-22T12:41:49.194Z,24.10
2018-04-22T12:44:17.251Z,25.00
2018-04-22T12:46:45.295Z,24.80
2018-04-22T12:49:14.122Z,26.90
2018-04-22T12:51:42.260Z,26.90
2018-04-22T12:54:10.310Z,26.90
2018-04-22T12:56:38.368Z,24.80
2018-04-22T12:59:06.419Z,26.00
2018-04-22T13:01:35.243Z,24.00
2018-04-22T13:04:03.280Z,23.90
2018-04-22T13:06:31.338Z,22.10
2018-04-22T13:08:59.367Z,24.50
2018-04-22T13:11:27.422Z,21.70
2018-04-22T13:13:55.495Z,22.20
2018-04-22T13:16:23.536Z,22.20
2018-04-22T13:18:52.368Z,22.50
2018-04-22T13:21:20.406Z,22.60
2018-04-22T13:23:48.471Z,20.10
2018-04-22T13:26:16.502Z,20.50
2018-04-22T13:28:44.555Z,21.70
2018-04-22T13:31:12.611Z,22.40
2018-04-22T13:33:40.903Z,19.70
2018-04-22T13:36:08.955Z,20.50
2018-04-22T13:38:36.990Z,20.20
2018-04-22T13:41:05.823Z,18.30
2018-04-22T13:43:33.863Z,18.20
2018-04-22T13:46:01.924Z,18.30
2018-04-22T13:48:29.979Z,18.40
2018-04-22T13:50:58.015Z,19.70
2018-04-22T13:53:26.075Z,17.00
2018-04-22T13:55:54.106Z,16.60
2018-04-22T13:58:22.166Z,16.60
2018-04-22T14:00:50.213Z,17.40
2018-04-22T14:03:18.258Z,14.90
2018-04-22T14:05:47.078Z,15.10
2018-04-22T14:08:16.187Z,15.10
2018-04-22T14:10:44.277Z,15.70
2018-04-22T14:13:12.333Z,15.40
2018-04-22T14:15:41.147Z,15.60
2018-04-22T14:18:09.947Z,15.60
2018-04-22T14:20:38.780Z,16.20
2018-04-22T14:23:06.843Z,16.20
2018-04-22T14:25:34.902Z,14.80
2018-04-22T14:28:02.963Z,16.70
2018-04-22T14:30:31.123Z,14.60
2018-04-22T14:32:59.183Z,15.80
2018-04-22T14:35:27.767Z,15.40
2018-04-22T14:37:55.835Z,14.50
2018-04-22T14:40:23.919Z,15.10
2018-04-22T14:42:52.728Z,13.50
2018-04-22T14:45:33.556Z,14.90
2018-04-22T14:48:01.583Z,14.30
2018-04-22T14:50:29.647Z,14.40
2018-04-22T14:52:57.774Z,14.60
2018-04-22T14:55:26.812Z,15.60
2018-04-22T14:57:54.840Z,15.60
2018-04-22T15:00:22.900Z,15.60
2018-04-22T15:02:50.984Z,15.10
2018-04-22T15:05:19.068Z,14.80
2018-04-22T15:07:47.087Z,15.60
2018-04-22T15:10:15.912Z,15.30
2018-04-22T15:12:44.735Z,13.60
2018-04-22T15:15:12.778Z,13.60
2018-04-22T15:17:40.835Z,15.70
2018-04-22T15:20:08.908Z,14.70
2018-04-22T15:22:36.945Z,14.90
2018-04-22T15:25:05.787Z,13.70
2018-04-22T15:27:33.835Z,13.70
2018-04-22T15:30:01.909Z,13.50
2018-04-22T15:32:30.703Z,14.80
2018-04-22T15:34:59.532Z,14.70
2018-04-22T15:37:27.591Z,14.60
2018-04-22T15:39:56.411Z,15.10
2018-04-22T15:42:24.477Z,15.00
2018-04-22T15:44:52.520Z,14.50
2018-04-22T15:47:20.568Z,14.90
2018-04-22T15:49:48.604Z,15.70
2018-04-22T15:52:16.663Z,15.70
2018-04-22T15:54:44.734Z,16.20
2018-04-22T15:57:12.779Z,15.90
2018-04-22T15:59:41.603Z,15.80
2018-04-22T16:02:09.655Z,15.70
2018-04-22T16:04:37.709Z,16.10
2018-04-22T16:07:05.744Z,16.90
2018-04-22T16:09:34.567Z,17.30
2018-04-22T16:12:02.612Z,17.30
2018-04-22T16:14:30.734Z,17.30
2018-04-22T16:16:58.719Z,17.60
2018-04-22T16:19:26.780Z,17.00
2018-04-22T16:21:55.591Z,15.40
2018-04-22T16:24:24.401Z,15.00
2018-04-22T16:26:52.448Z,14.90
2018-04-22T16:29:20.500Z,15.00
2018-04-22T16:31:48.551Z,14.80
2018-04-22T16:34:16.622Z,15.50
2018-04-22T16:36:45.437Z,16.80
2018-04-22T16:39:13.483Z,16.80
2018-04-22T16:41:41.539Z,17.80
2018-04-22T16:44:09.583Z,18.30
2018-04-22T16:46:37.648Z,18.90
2018-04-22T16:49:06.451Z,19.50
2018-04-22T16:51:35.276Z,19.90
2018-04-22T16:54:03.438Z,19.80
2018-04-22T16:56:31.476Z,20.30
2018-04-22T16:58:59.536Z,20.20
2018-04-22T17:01:27.574Z,20.20
2018-04-22T17:03:55.631Z,20.20
2018-04-22T17:06:23.667Z,20.20
2018-04-22T17:08:51.736Z,20.20
2018-04-22T17:11:20.683Z,20.70
2018-04-22T17:13:48.734Z,20.40
2018-04-22T17:16:16.948Z,20.50
2018-04-22T17:18:45.028Z,21.40
2018-04-22T17:21:14.129Z,20.80
2018-04-22T17:23:42.940Z,21.60
2018-04-22T17:26:10.994Z,21.60
2018-04-22T17:28:39.828Z,21.60
2018-04-22T17:31:07.871Z,21.60
2018-04-22T17:33:36.707Z,23.60
2018-04-22T17:36:04.740Z,23.60
2018-04-22T17:38:32.803Z,23.50
2018-04-22T17:41:00.900Z,23.40
2018-04-22T17:43:28.972Z,23.40
2018-04-22T17:45:57.035Z,23.30
2018-04-22T17:48:25.071Z,23.20
2018-04-22T17:50:53.915Z,25.00
2018-04-22T17:53:21.985Z,25.00
2018-04-22T17:55:50.810Z,26.60
2018-04-22T17:58:19.634Z,26.90
2018-04-22T18:00:47.687Z,26.90
2018-04-22T18:03:17.491Z,28.30
2018-04-22T18:05:46.327Z,29.00
2018-04-22T18:08:14.355Z,28.50
2018-04-22T18:10:42.419Z,29.40
2018-04-22T18:13:10.472Z,29.70
2018-04-22T18:15:38.519Z,29.60
2018-04-22T18:18:08.277Z,31.10
2018-04-22T18:20:37.076Z,31.80
2018-04-22T18:23:05.144Z,31.70
2018-04-22T18:25:33.959Z,33.30
2018-04-22T18:28:02.786Z,33.90
2018-04-22T18:30:31.759Z,33.80
2018-04-22T18:33:02.524Z,34.40
2018-04-22T18:35:30.567Z,34.30
2018-04-22T18:37:59.405Z,35.30
2018-04-22T18:40:27.466Z,35.20
2018-04-22T18:42:56.276Z,36.40
2018-04-22T18:45:25.126Z,36.20
2018-04-22T18:47:53.171Z,36.10
2018-04-22T18:50:22.000Z,36.90
2018-04-22T18:52:50.055Z,36.90
2018-04-22T18:55:18.885Z,37.40
2018-04-22T18:57:46.936Z,37.30
2018-04-22T19:00:15.787Z,37.30
2018-04-22T19:02:43.840Z,37.20
2018-04-22T19:05:11.891Z,37.70
2018-04-22T19:07:39.943Z,37.70
2018-04-22T19:10:08.035Z,38.60
2018-04-22T19:12:37.103Z,39.30
2018-04-22T19:15:05.580Z,39.50
2018-04-22T19:17:34.404Z,40.00
2018-04-22T19:20:02.478Z,40.00
2018-04-22T19:22:30.531Z,40.60
2018-04-22T19:24:58.656Z,40.70
2018-04-22T19:27:26.702Z,40.50
2018-04-22T19:29:54.778Z,41.10
2018-04-22T19:32:22.827Z,41.40
2018-04-22T19:34:50.939Z,41.80
2018-04-22T19:37:19.059Z,42.00
2018-04-22T19:39:47.153Z,42.50
2018-04-22T19:42:15.987Z,39.00
2018-04-22T19:44:44.039Z,38.90
2018-04-22T19:47:12.110Z,39.10
2018-04-22T19:49:40.922Z,39.50
2018-04-22T19:52:09.759Z,39.70
2018-04-22T19:54:37.815Z,39.70
2018-04-22T19:57:05.892Z,39.80
2018-04-22T19:59:34.979Z,40.00
2018-04-22T20:02:04.022Z,39.60
2018-04-22T20:04:32.111Z,39.80
2018-04-22T20:07:00.911Z,40.50
2018-04-22T20:09:28.982Z,40.50
2018-04-22T20:11:57.824Z,40.10
2018-04-22T20:14:25.866Z,40.00
2018-04-22T20:16:53.982Z,40.30
2018-04-22T20:19:22.020Z,40.80
2018-04-22T20:21:50.909Z,42.50
2018-04-22T20:24:18.965Z,42.30
2018-04-22T20:26:47.047Z,42.70
2018-04-22T20:29:15.848Z,42.70
2018-04-22T20:31:43.888Z,43.30
2018-04-22T20:34:12.721Z,43.50
2018-04-22T20:36:40.782Z,43.40
2018-04-22T20:39:09.615Z,44.30
2018-04-22T20:41:37.635Z,44.30
2018-04-22T20:44:05.704Z,44.30
2018-04-22T20:46:33.741Z,44.20
2018-04-22T20:49:01.803Z,44.80
2018-04-22T20:51:30.623Z,46.20
2018-04-22T20:53:58.679Z,45.60
2018-04-22T20:56:26.739Z,46.10
2018-04-22T20:58:54.775Z,46.50
2018-04-22T21:01:22.849Z,46.50
2018-04-22T21:03:51.667Z,47.60
2018-04-22T21:06:19.740Z,47.60
2018-04-22T21:08:48.589Z,47.40
2018-04-22T21:11:16.636Z,47.30
2018-04-22T21:13:44.700Z,47.00
2018-04-22T21:16:13.518Z,46.70
2018-04-22T21:18:41.573Z,47.20
2018-04-22T21:21:09.666Z,46.80
2018-04-22T21:23:37.795Z,47.60
2018-04-22T21:26:05.856Z,47.40
2018-04-22T21:28:34.713Z,47.40
2018-04-22T21:31:02.719Z,47.40
2018-04-22T21:33:30.772Z,48.10
2018-04-22T21:35:58.806Z,48.70
2018-04-22T21:38:26.871Z,48.50
2018-04-22T21:40:55.411Z,48.30
2018-04-22T21:43:23.435Z,49.40
2018-04-22T21:45:51.498Z,49.10
2018-04-22T21:48:19.543Z,49.90
2018-04-22T21:50:47.610Z,50.10
2018-04-22T21:53:16.411Z,52.00
2018-04-22T21:55:44.919Z,51.10
2018-04-22T21:58:12.985Z,51.60
2018-04-22T22:00:41.787Z,52.50
2018-04-22T22:03:10.611Z,51.80
2018-04-22T22:05:38.651Z,51.80
2018-04-22T22:08:06.709Z,51.80
2018-04-22T22:10:34.743Z,51.80
2018-04-22T22:13:03.567Z,51.90
2018-04-22T22:15:31.628Z,51.80
2018-04-22T22:17:59.668Z,51.80
2018-04-22T22:20:27.719Z,51.90
2018-04-22T22:22:56.542Z,51.60
2018-04-22T22:25:24.599Z,51.60
2018-04-22T22:27:53.415Z,52.60
2018-04-22T22:30:21.471Z,52.60
2018-04-22T22:32:49.568Z,51.70
2018-04-22T22:35:18.409Z,52.10
2018-04-22T22:37:46.451Z,52.10
2018-04-22T22:40:15.276Z,51.70
2018-04-22T22:42:43.320Z,52.30
2018-04-22T22:45:11.383Z,51.60
2018-04-22T22:47:39.430Z,51.40
2018-04-22T22:50:07.487Z,51.40
2018-04-22T22:52:35.548Z,51.50
2018-04-22T22:55:05.108Z,52.10
2018-04-22T22:57:33.919Z,53.00
2018-04-22T23:00:01.969Z,52.90
2018-04-22T23:02:30.036Z,52.80
2018-04-22T23:04:58.089Z,53.40
2018-04-22T23:07:26.132Z,53.20
2018-04-22T23:09:54.973Z,53.70
2018-04-22T23:12:23.947Z,53.80
2018-04-22T23:14:52.766Z,53.70
2018-04-22T23:17:20.824Z,53.60
2018-04-22T23:19:48.885Z,54.30
2018-04-22T23:22:16.946Z,54.50
2018-04-22T23:24:44.979Z,54.10
2018-04-22T23:27:13.799Z,53.30
2018-04-22T23:29:41.852Z,53.20
2018-04-22T23:32:10.155Z,53.50
2018-04-22T23:34:38.966Z,54.00
2018-04-22T23:37:07.022Z,53.90
2018-04-22T23:39:35.059Z,53.00
2018-04-22T23:42:03.116Z,52.90
2018-04-22T23:44:31.919Z,52.60
2018-04-22T23:47:00.247Z,52.50
2018-04-22T23:49:28.280Z,52.60
2018-04-22T23:51:57.102Z,52.80
2018-04-22T23:54:25.143Z,52.80
2018-04-22T23:56:53.196Z,53.30
2018-04-22T23:59:21.266Z,53.60
